sensor_id;sensor_type;location;lat;lon;timestamp;P1;durP1;ratioP1;P2;durP2;ratioP2
908;SDS011;441;51.192;6.788;2023-04-01T00:02:24;9.67;;;9.30;;
908;SDS011;441;51.192;6.788;2023-04-01T00:04:52;10.33;;;9.73;;
908;SDS011;441;51.192;6.788;2023-04-01T00:07:20;10.03;;;9.73;;
908;SDS011;441;51.192;6.788;2023-04-01T00:09:47;9.60;;;9.30;;
908;SDS011;441;51.192;6.788;2023-04-01T00:12:14;10.37;;;9.97;;
908;SDS011;441;51.192;6.788;2023-04-01T00:14:41;9.67;;;9.30;;
908;SDS011;441;51.192;6.788;2023-04-01T00:17:08;10.67;;;9.97;;
908;SDS011;441;51.192;6.788;2023-04-01T00:19:35;9.83;;;9.63;;
908;SDS011;441;51.192;6.788;2023-04-01T00:22:03;9.70;;;9.40;;
908;SDS011;441;51.192;6.788;2023-04-01T00:24:31;9.30;;;9.10;;
908;SDS011;441;51.192;6.788;2023-04-01T00:26:58;9.67;;;9.37;;
908;SDS011;441;51.192;6.788;2023-04-01T00:29:25;9.27;;;8.97;;
908;SDS011;441;51.192;6.788;2023-04-01T00:31:54;9.67;;;9.40;;
908;SDS011;441;51.192;6.788;2023-04-01T00:34:21;9.80;;;9.40;;
908;SDS011;441;51.192;6.788;2023-04-01T00:36:48;9.60;;;9.30;;
908;SDS011;441;51.192;6.788;2023-04-01T00:39:18;10.00;;;9.60;;
908;SDS011;441;51.192;6.788;2023-04-01T00:41:45;9.50;;;9.20;;
908;SDS011;441;51.192;6.788;2023-04-01T00:44:17;10.27;;;9.87;;
908;SDS011;441;51.192;6.788;2023-04-01T00:46:46;9.20;;;8.90;;
908;SDS011;441;51.192;6.788;2023-04-01T00:49:13;9.30;;;9.00;;
908;SDS011;441;51.192;6.788;2023-04-01T00:51:42;9.40;;;9.10;;
908;SDS011;441;51.192;6.788;2023-04-01T00:54:11;10.00;;;9.67;;
908;SDS011;441;51.192;6.788;2023-04-01T00:56:41;9.80;;;9.23;;
908;SDS011;441;51.192;6.788;2023-04-01T00:59:14;9.80;;;9.50;;
908;SDS011;441;51.192;6.788;2023-04-01T01:01:44;9.10;;;8.90;;
908;SDS011;441;51.192;6.788;2023-04-01T01:04:20;9.23;;;9.03;;
908;SDS011;441;51.192;6.788;2023-04-01T01:06:50;8.97;;;8.67;;
908;SDS011;441;51.192;6.788;2023-04-01T01:09:28;9.27;;;9.07;;
908;SDS011;441;51.192;6.788;2023-04-01T01:12:03;9.10;;;8.90;;
908;SDS011;441;51.192;6.788;2023-04-01T01:14:41;9.57;;;9.30;;
908;SDS011;441;51.192;6.788;2023-04-01T01:17:19;9.07;;;8.87;;
908;SDS011;441;51.192;6.788;2023-04-01T01:19:57;10.10;;;9.80;;
908;SDS011;441;51.192;6.788;2023-04-01T01:23:01;11.27;;;10.80;;
908;SDS011;441;51.192;6.788;2023-04-01T01:25:49;9.30;;;8.97;;
908;SDS011;441;51.192;6.788;2023-04-01T01:28:31;9.57;;;9.27;;
908;SDS011;441;51.192;6.788;2023-04-01T01:31:09;9.30;;;9.10;;
908;SDS011;441;51.192;6.788;2023-04-01T01:33:51;9.10;;;8.90;;
908;SDS011;441;51.192;6.788;2023-04-01T01:36:28;9.90;;;9.70;;
908;SDS011;441;51.192;6.788;2023-04-01T01:38:59;10.10;;;9.80;;
908;SDS011;441;51.192;6.788;2023-04-01T01:41:29;8.70;;;8.50;;
908;SDS011;441;51.192;6.788;2023-04-01T01:43:57;9.53;;;9.33;;
908;SDS011;441;51.192;6.788;2023-04-01T01:46:28;9.33;;;9.03;;
908;SDS011;441;51.192;6.788;2023-04-01T01:48:57;9.00;;;8.80;;
908;SDS011;441;51.192;6.788;2023-04-01T01:51:26;10.40;;;10.00;;
908;SDS011;441;51.192;6.788;2023-04-01T01:53:55;9.53;;;9.33;;
908;SDS011;441;51.192;6.788;2023-04-01T01:56:23;8.80;;;8.60;;
908;SDS011;441;51.192;6.788;2023-04-01T01:58:54;9.67;;;9.37;;
908;SDS011;441;51.192;6.788;2023-04-01T02:01:25;9.53;;;9.30;;
908;SDS011;441;51.192;6.788;2023-04-01T02:03:55;8.87;;;8.67;;
908;SDS011;441;51.192;6.788;2023-04-01T02:06:25;9.23;;;9.03;;
908;SDS011;441;51.192;6.788;2023-04-01T02:08:57;8.60;;;8.40;;
908;SDS011;441;51.192;6.788;2023-04-01T02:11:28;8.60;;;8.40;;
908;SDS011;441;51.192;6.788;2023-04-01T02:14:01;9.17;;;8.83;;
908;SDS011;441;51.192;6.788;2023-04-01T02:16:32;9.40;;;9.20;;
908;SDS011;441;51.192;6.788;2023-04-01T02:19:02;9.60;;;9.20;;
908;SDS011;441;51.192;6.788;2023-04-01T02:21:32;9.80;;;9.60;;
908;SDS011;441;51.192;6.788;2023-04-01T02:24:03;9.10;;;8.90;;
908;SDS011;441;51.192;6.788;2023-04-01T02:26:34;9.47;;;9.10;;
908;SDS011;441;51.192;6.788;2023-04-01T02:29:01;8.90;;;8.70;;
908;SDS011;441;51.192;6.788;2023-04-01T02:31:31;9.10;;;8.80;;
908;SDS011;441;51.192;6.788;2023-04-01T02:33:58;9.90;;;9.60;;
908;SDS011;441;51.192;6.788;2023-04-01T02:36:26;9.17;;;8.97;;
908;SDS011;441;51.192;6.788;2023-04-01T02:38:52;8.87;;;8.50;;
908;SDS011;441;51.192;6.788;2023-04-01T02:41:25;8.97;;;8.67;;
908;SDS011;441;51.192;6.788;2023-04-01T02:43:52;9.60;;;9.40;;
908;SDS011;441;51.192;6.788;2023-04-01T02:46:20;9.17;;;8.90;;
908;SDS011;441;51.192;6.788;2023-04-01T02:48:46;9.13;;;8.93;;
908;SDS011;441;51.192;6.788;2023-04-01T02:51:13;8.10;;;7.90;;
908;SDS011;441;51.192;6.788;2023-04-01T02:53:40;8.77;;;8.60;;
908;SDS011;441;51.192;6.788;2023-04-01T02:56:07;9.33;;;8.83;;
908;SDS011;441;51.192;6.788;2023-04-01T02:58:35;8.57;;;8.37;;
908;SDS011;441;51.192;6.788;2023-04-01T03:01:02;9.47;;;9.27;;
908;SDS011;441;51.192;6.788;2023-04-01T03:03:29;8.60;;;8.40;;
908;SDS011;441;51.192;6.788;2023-04-01T03:05:56;8.70;;;8.13;;
908;SDS011;441;51.192;6.788;2023-04-01T03:08:25;7.80;;;7.70;;
908;SDS011;441;51.192;6.788;2023-04-01T03:10:52;8.00;;;7.80;;
908;SDS011;441;51.192;6.788;2023-04-01T03:13:18;8.00;;;7.90;;
908;SDS011;441;51.192;6.788;2023-04-01T03:15:47;7.90;;;7.70;;
908;SDS011;441;51.192;6.788;2023-04-01T03:18:14;7.80;;;7.60;;
908;SDS011;441;51.192;6.788;2023-04-01T03:20:40;8.70;;;8.50;;
908;SDS011;441;51.192;6.788;2023-04-01T03:23:07;7.70;;;7.50;;
908;SDS011;441;51.192;6.788;2023-04-01T03:25:34;7.50;;;7.40;;
908;SDS011;441;51.192;6.788;2023-04-01T03:28:01;7.80;;;7.60;;
908;SDS011;441;51.192;6.788;2023-04-01T03:30:29;7.47;;;7.37;;
908;SDS011;441;51.192;6.788;2023-04-01T03:32:58;7.30;;;7.20;;
908;SDS011;441;51.192;6.788;2023-04-01T03:35:25;8.67;;;8.47;;
908;SDS011;441;51.192;6.788;2023-04-01T03:37:52;8.30;;;8.10;;
908;SDS011;441;51.192;6.788;2023-04-01T03:40:20;7.60;;;7.43;;
908;SDS011;441;51.192;6.788;2023-04-01T03:42:47;8.30;;;8.10;;
908;SDS011;441;51.192;6.788;2023-04-01T03:45:14;8.40;;;8.20;;
908;SDS011;441;51.192;6.788;2023-04-01T03:47:41;8.40;;;8.20;;
908;SDS011;441;51.192;6.788;2023-04-01T03:50:10;8.67;;;8.47;;
908;SDS011;441;51.192;6.788;2023-04-01T03:52:37;7.80;;;7.60;;
908;SDS011;441;51.192;6.788;2023-04-01T03:55:05;8.70;;;8.50;;
908;SDS011;441;51.192;6.788;2023-04-01T03:57:32;8.43;;;8.13;;
908;SDS011;441;51.192;6.788;2023-04-01T04:00:00;8.30;;;8.00;;
908;SDS011;441;51.192;6.788;2023-04-01T04:02:27;8.03;;;7.90;;
908;SDS011;441;51.192;6.788;2023-04-01T04:04:53;7.50;;;7.40;;
908;SDS011;441;51.192;6.788;2023-04-01T04:07:22;7.53;;;7.33;;
908;SDS011;441;51.192;6.788;2023-04-01T04:09:49;8.30;;;8.10;;
908;SDS011;441;51.192;6.788;2023-04-01T04:12:15;8.10;;;7.90;;
908;SDS011;441;51.192;6.788;2023-04-01T04:14:42;7.73;;;7.57;;
908;SDS011;441;51.192;6.788;2023-04-01T04:17:09;8.50;;;8.30;;
908;SDS011;441;51.192;6.788;2023-04-01T04:19:41;8.33;;;8.10;;
908;SDS011;441;51.192;6.788;2023-04-01T04:22:07;8.10;;;7.90;;
908;SDS011;441;51.192;6.788;2023-04-01T04:24:36;8.10;;;7.90;;
908;SDS011;441;51.192;6.788;2023-04-01T04:27:03;8.33;;;8.13;;
908;SDS011;441;51.192;6.788;2023-04-01T04:29:30;9.10;;;8.90;;
908;SDS011;441;51.192;6.788;2023-04-01T04:31:57;8.20;;;8.00;;
908;SDS011;441;51.192;6.788;2023-04-01T04:34:24;8.13;;;8.03;;
908;SDS011;441;51.192;6.788;2023-04-01T04:36:51;8.03;;;7.87;;
908;SDS011;441;51.192;6.788;2023-04-01T04:39:18;8.00;;;7.90;;
908;SDS011;441;51.192;6.788;2023-04-01T04:41:46;8.50;;;8.30;;
908;SDS011;441;51.192;6.788;2023-04-01T04:44:13;8.60;;;8.40;;
908;SDS011;441;51.192;6.788;2023-04-01T04:46:40;7.40;;;7.30;;
908;SDS011;441;51.192;6.788;2023-04-01T04:49:07;7.70;;;7.60;;
908;SDS011;441;51.192;6.788;2023-04-01T04:51:34;7.80;;;7.60;;
908;SDS011;441;51.192;6.788;2023-04-01T04:54:01;7.47;;;7.37;;
908;SDS011;441;51.192;6.788;2023-04-01T04:56:28;9.23;;;9.03;;
908;SDS011;441;51.192;6.788;2023-04-01T04:58:57;8.57;;;8.47;;
908;SDS011;441;51.192;6.788;2023-04-01T05:01:24;9.50;;;9.30;;
908;SDS011;441;51.192;6.788;2023-04-01T05:03:51;9.13;;;8.93;;
908;SDS011;441;51.192;6.788;2023-04-01T05:06:19;8.23;;;8.03;;
908;SDS011;441;51.192;6.788;2023-04-01T05:08:46;8.10;;;8.00;;
908;SDS011;441;51.192;6.788;2023-04-01T05:11:13;8.97;;;8.77;;
908;SDS011;441;51.192;6.788;2023-04-01T05:13:42;7.50;;;7.37;;
908;SDS011;441;51.192;6.788;2023-04-01T05:16:11;7.60;;;7.47;;
908;SDS011;441;51.192;6.788;2023-04-01T05:18:40;8.47;;;8.27;;
908;SDS011;441;51.192;6.788;2023-04-01T05:21:07;9.17;;;8.97;;
908;SDS011;441;51.192;6.788;2023-04-01T05:23:36;8.60;;;8.40;;
908;SDS011;441;51.192;6.788;2023-04-01T05:26:03;8.05;;;7.85;;
908;SDS011;441;51.192;6.788;2023-04-01T05:28:30;10.30;;;10.10;;
908;SDS011;441;51.192;6.788;2023-04-01T05:30:58;9.87;;;9.67;;
908;SDS011;441;51.192;6.788;2023-04-01T05:33:27;10.30;;;10.10;;
908;SDS011;441;51.192;6.788;2023-04-01T05:35:54;10.40;;;10.20;;
908;SDS011;441;51.192;6.788;2023-04-01T05:38:22;9.70;;;9.50;;
908;SDS011;441;51.192;6.788;2023-04-01T05:40:49;10.37;;;10.17;;
908;SDS011;441;51.192;6.788;2023-04-01T05:43:16;9.37;;;9.17;;
908;SDS011;441;51.192;6.788;2023-04-01T05:45:42;10.43;;;10.23;;
908;SDS011;441;51.192;6.788;2023-04-01T05:48:09;10.40;;;10.10;;
908;SDS011;441;51.192;6.788;2023-04-01T05:50:38;9.63;;;9.33;;
908;SDS011;441;51.192;6.788;2023-04-01T05:53:06;9.20;;;9.00;;
908;SDS011;441;51.192;6.788;2023-04-01T05:55:34;9.53;;;9.33;;
908;SDS011;441;51.192;6.788;2023-04-01T05:58:01;9.60;;;9.40;;
908;SDS011;441;51.192;6.788;2023-04-01T06:00:28;10.10;;;9.80;;
908;SDS011;441;51.192;6.788;2023-04-01T06:02:57;9.77;;;9.57;;
908;SDS011;441;51.192;6.788;2023-04-01T06:05:27;10.27;;;9.97;;
908;SDS011;441;51.192;6.788;2023-04-01T06:07:58;9.70;;;9.40;;
908;SDS011;441;51.192;6.788;2023-04-01T06:10:32;9.20;;;9.00;;
908;SDS011;441;51.192;6.788;2023-04-01T06:13:06;8.50;;;8.40;;
908;SDS011;441;51.192;6.788;2023-04-01T06:15:39;9.27;;;9.07;;
908;SDS011;441;51.192;6.788;2023-04-01T06:18:20;9.67;;;9.30;;
908;SDS011;441;51.192;6.788;2023-04-01T06:21:28;9.57;;;9.30;;
908;SDS011;441;51.192;6.788;2023-04-01T06:24:12;9.60;;;9.30;;
908;SDS011;441;51.192;6.788;2023-04-01T06:26:55;9.40;;;9.20;;
908;SDS011;441;51.192;6.788;2023-04-01T06:29:41;9.20;;;9.00;;
908;SDS011;441;51.192;6.788;2023-04-01T06:32:20;9.30;;;9.10;;
908;SDS011;441;51.192;6.788;2023-04-01T06:43:42;9.73;;;9.53;;
908;SDS011;441;51.192;6.788;2023-04-01T06:46:17;9.80;;;9.60;;
908;SDS011;441;51.192;6.788;2023-04-01T06:51:37;9.80;;;9.60;;
908;SDS011;441;51.192;6.788;2023-04-01T06:54:11;9.30;;;9.10;;
908;SDS011;441;51.192;6.788;2023-04-01T06:56:44;9.70;;;9.50;;
908;SDS011;441;51.192;6.788;2023-04-01T06:59:15;9.50;;;9.30;;
908;SDS011;441;51.192;6.788;2023-04-01T07:01:45;9.20;;;9.00;;
908;SDS011;441;51.192;6.788;2023-04-01T07:04:17;9.03;;;8.83;;
908;SDS011;441;51.192;6.788;2023-04-01T07:06:48;9.63;;;9.43;;
908;SDS011;441;51.192;6.788;2023-04-01T07:09:19;10.97;;;10.77;;
908;SDS011;441;51.192;6.788;2023-04-01T07:11:52;9.30;;;9.10;;
908;SDS011;441;51.192;6.788;2023-04-01T07:14:24;9.00;;;8.80;;
908;SDS011;441;51.192;6.788;2023-04-01T07:16:56;9.30;;;9.10;;
908;SDS011;441;51.192;6.788;2023-04-01T07:19:29;10.30;;;10.10;;
908;SDS011;441;51.192;6.788;2023-04-01T07:22:00;9.17;;;8.97;;
908;SDS011;441;51.192;6.788;2023-04-01T07:24:32;8.87;;;8.67;;
908;SDS011;441;51.192;6.788;2023-04-01T07:27:02;9.30;;;9.10;;
908;SDS011;441;51.192;6.788;2023-04-01T07:29:31;9.80;;;9.60;;
908;SDS011;441;51.192;6.788;2023-04-01T07:32:07;9.97;;;9.77;;
908;SDS011;441;51.192;6.788;2023-04-01T07:34:44;10.13;;;9.93;;
908;SDS011;441;51.192;6.788;2023-04-01T07:37:22;10.47;;;10.27;;
908;SDS011;441;51.192;6.788;2023-04-01T07:39:57;9.87;;;9.67;;
908;SDS011;441;51.192;6.788;2023-04-01T07:42:37;10.47;;;10.27;;
908;SDS011;441;51.192;6.788;2023-04-01T07:45:16;9.53;;;9.13;;
908;SDS011;441;51.192;6.788;2023-04-01T07:47:55;9.57;;;9.37;;
908;SDS011;441;51.192;6.788;2023-04-01T07:50:31;10.07;;;9.87;;
908;SDS011;441;51.192;6.788;2023-04-01T07:53:04;9.57;;;9.37;;
908;SDS011;441;51.192;6.788;2023-04-01T07:55:40;9.67;;;9.47;;
908;SDS011;441;51.192;6.788;2023-04-01T07:58:14;10.17;;;9.97;;
908;SDS011;441;51.192;6.788;2023-04-01T08:00:49;9.70;;;9.50;;
908;SDS011;441;51.192;6.788;2023-04-01T08:03:31;9.53;;;9.33;;
908;SDS011;441;51.192;6.788;2023-04-01T08:06:06;9.40;;;9.20;;
908;SDS011;441;51.192;6.788;2023-04-01T08:08:43;9.40;;;9.20;;
908;SDS011;441;51.192;6.788;2023-04-01T08:11:22;9.63;;;9.43;;
908;SDS011;441;51.192;6.788;2023-04-01T08:14:01;9.40;;;9.20;;
908;SDS011;441;51.192;6.788;2023-04-01T08:16:33;9.70;;;9.50;;
908;SDS011;441;51.192;6.788;2023-04-01T08:19:04;9.80;;;9.60;;
908;SDS011;441;51.192;6.788;2023-04-01T08:21:42;9.80;;;9.60;;
908;SDS011;441;51.192;6.788;2023-04-01T08:24:11;9.47;;;9.27;;
908;SDS011;441;51.192;6.788;2023-04-01T08:26:51;9.50;;;9.30;;
908;SDS011;441;51.192;6.788;2023-04-01T08:29:23;9.50;;;9.20;;
908;SDS011;441;51.192;6.788;2023-04-01T08:32:03;9.33;;;9.13;;
908;SDS011;441;51.192;6.788;2023-04-01T08:34:36;9.80;;;9.60;;
908;SDS011;441;51.192;6.788;2023-04-01T08:37:06;9.50;;;9.30;;
908;SDS011;441;51.192;6.788;2023-04-01T08:39:37;10.60;;;10.40;;
908;SDS011;441;51.192;6.788;2023-04-01T08:48:07;10.10;;;9.80;;
908;SDS011;441;51.192;6.788;2023-04-01T08:51:02;9.73;;;9.53;;
908;SDS011;441;51.192;6.788;2023-04-01T08:53:49;9.60;;;9.40;;
908;SDS011;441;51.192;6.788;2023-04-01T08:56:38;10.20;;;10.00;;
908;SDS011;441;51.192;6.788;2023-04-01T08:59:13;9.63;;;9.43;;
908;SDS011;441;51.192;6.788;2023-04-01T09:02:05;9.57;;;9.37;;
908;SDS011;441;51.192;6.788;2023-04-01T09:05:11;10.03;;;9.83;;
908;SDS011;441;51.192;6.788;2023-04-01T09:08:03;10.10;;;9.90;;
908;SDS011;441;51.192;6.788;2023-04-01T09:10:59;10.30;;;10.03;;
908;SDS011;441;51.192;6.788;2023-04-01T09:13:47;10.50;;;10.27;;
908;SDS011;441;51.192;6.788;2023-04-01T09:16:36;10.97;;;10.57;;
908;SDS011;441;51.192;6.788;2023-04-01T09:19:29;10.10;;;9.90;;
908;SDS011;441;51.192;6.788;2023-04-01T09:22:13;9.73;;;9.50;;
908;SDS011;441;51.192;6.788;2023-04-01T09:24:57;9.33;;;9.13;;
908;SDS011;441;51.192;6.788;2023-04-01T09:27:53;9.53;;;9.33;;
908;SDS011;441;51.192;6.788;2023-04-01T09:33:37;10.33;;;10.13;;
908;SDS011;441;51.192;6.788;2023-04-01T09:36:29;11.00;;;10.60;;
908;SDS011;441;51.192;6.788;2023-04-01T09:39:11;10.43;;;10.20;;
908;SDS011;441;51.192;6.788;2023-04-01T09:41:53;10.00;;;9.80;;
908;SDS011;441;51.192;6.788;2023-04-01T09:44:29;10.40;;;10.20;;
908;SDS011;441;51.192;6.788;2023-04-01T09:47:05;10.50;;;10.30;;
908;SDS011;441;51.192;6.788;2023-04-01T09:49:53;10.60;;;10.40;;
908;SDS011;441;51.192;6.788;2023-04-01T09:52:35;10.27;;;10.00;;
908;SDS011;441;51.192;6.788;2023-04-01T09:55:19;10.50;;;10.30;;
908;SDS011;441;51.192;6.788;2023-04-01T09:58:25;10.20;;;10.00;;
908;SDS011;441;51.192;6.788;2023-04-01T10:01:22;10.07;;;9.87;;
908;SDS011;441;51.192;6.788;2023-04-01T10:04:39;11.30;;;11.00;;
908;SDS011;441;51.192;6.788;2023-04-01T10:07:45;11.70;;;11.40;;
908;SDS011;441;51.192;6.788;2023-04-01T10:10:59;10.30;;;10.10;;
908;SDS011;441;51.192;6.788;2023-04-01T10:13:48;9.77;;;9.57;;
908;SDS011;441;51.192;6.788;2023-04-01T10:16:50;10.20;;;9.90;;
908;SDS011;441;51.192;6.788;2023-04-01T10:19:54;10.70;;;10.40;;
908;SDS011;441;51.192;6.788;2023-04-01T10:22:52;10.40;;;10.00;;
908;SDS011;441;51.192;6.788;2023-04-01T10:25:42;8.30;;;8.10;;
908;SDS011;441;51.192;6.788;2023-04-01T10:28:47;10.57;;;10.27;;
908;SDS011;441;51.192;6.788;2023-04-01T10:31:34;9.80;;;9.60;;
908;SDS011;441;51.192;6.788;2023-04-01T10:34:19;10.23;;;10.03;;
908;SDS011;441;51.192;6.788;2023-04-01T10:37:10;10.10;;;9.90;;
908;SDS011;441;51.192;6.788;2023-04-01T10:40:06;9.70;;;9.50;;
908;SDS011;441;51.192;6.788;2023-04-01T10:43:07;9.80;;;9.60;;
908;SDS011;441;51.192;6.788;2023-04-01T10:52:12;9.63;;;9.43;;
908;SDS011;441;51.192;6.788;2023-04-01T10:55:16;10.73;;;10.43;;
908;SDS011;441;51.192;6.788;2023-04-01T10:58:10;10.40;;;10.13;;
908;SDS011;441;51.192;6.788;2023-04-01T11:04:10;9.10;;;8.90;;
908;SDS011;441;51.192;6.788;2023-04-01T11:16:38;9.80;;;9.60;;
908;SDS011;441;51.192;6.788;2023-04-01T11:19:36;11.53;;;11.20;;
908;SDS011;441;51.192;6.788;2023-04-01T11:22:36;9.53;;;9.33;;
908;SDS011;441;51.192;6.788;2023-04-01T11:25:36;9.83;;;9.63;;
908;SDS011;441;51.192;6.788;2023-04-01T11:28:35;11.23;;;10.93;;
908;SDS011;441;51.192;6.788;2023-04-01T11:31:22;10.80;;;10.50;;
908;SDS011;441;51.192;6.788;2023-04-01T11:34:02;10.23;;;10.03;;
908;SDS011;441;51.192;6.788;2023-04-01T11:36:41;10.03;;;9.83;;
908;SDS011;441;51.192;6.788;2023-04-01T11:39:19;10.87;;;10.67;;
908;SDS011;441;51.192;6.788;2023-04-01T11:41:59;10.60;;;10.40;;
908;SDS011;441;51.192;6.788;2023-04-01T11:44:36;9.40;;;9.00;;
908;SDS011;441;51.192;6.788;2023-04-01T11:47:19;10.63;;;10.43;;
908;SDS011;441;51.192;6.788;2023-04-01T11:50:15;10.53;;;10.33;;
908;SDS011;441;51.192;6.788;2023-04-01T11:52:55;9.97;;;9.67;;
908;SDS011;441;51.192;6.788;2023-04-01T11:55:52;10.97;;;10.67;;
908;SDS011;441;51.192;6.788;2023-04-01T12:01:18;10.77;;;10.57;;
908;SDS011;441;51.192;6.788;2023-04-01T12:03:59;11.13;;;10.83;;
908;SDS011;441;51.192;6.788;2023-04-01T12:06:48;11.23;;;10.93;;
908;SDS011;441;51.192;6.788;2023-04-01T12:09:21;10.57;;;10.27;;
908;SDS011;441;51.192;6.788;2023-04-01T12:11:59;11.30;;;10.90;;
908;SDS011;441;51.192;6.788;2023-04-01T12:14:39;10.90;;;10.30;;
908;SDS011;441;51.192;6.788;2023-04-01T12:17:19;10.77;;;10.50;;
908;SDS011;441;51.192;6.788;2023-04-01T12:19:58;11.17;;;10.97;;
908;SDS011;441;51.192;6.788;2023-04-01T12:22:39;10.70;;;10.30;;
908;SDS011;441;51.192;6.788;2023-04-01T12:25:18;10.47;;;10.23;;
908;SDS011;441;51.192;6.788;2023-04-01T12:27:54;10.53;;;10.33;;
908;SDS011;441;51.192;6.788;2023-04-01T12:30:35;10.83;;;10.53;;
908;SDS011;441;51.192;6.788;2023-04-01T12:36:35;10.10;;;9.90;;
908;SDS011;441;51.192;6.788;2023-04-01T12:42:12;9.80;;;9.60;;
908;SDS011;441;51.192;6.788;2023-04-01T12:44:56;9.27;;;8.97;;
908;SDS011;441;51.192;6.788;2023-04-01T12:50:31;9.60;;;9.40;;
908;SDS011;441;51.192;6.788;2023-04-01T12:53:10;10.30;;;10.00;;
908;SDS011;441;51.192;6.788;2023-04-01T12:55:50;10.20;;;10.00;;
908;SDS011;441;51.192;6.788;2023-04-01T12:58:30;10.87;;;10.50;;
908;SDS011;441;51.192;6.788;2023-04-01T13:07:47;10.00;;;9.70;;
908;SDS011;441;51.192;6.788;2023-04-01T13:10:29;10.10;;;9.80;;
908;SDS011;441;51.192;6.788;2023-04-01T13:16:10;10.27;;;10.07;;
908;SDS011;441;51.192;6.788;2023-04-01T13:18:42;10.20;;;9.80;;
908;SDS011;441;51.192;6.788;2023-04-01T13:21:24;9.73;;;9.53;;
908;SDS011;441;51.192;6.788;2023-04-01T13:23:59;10.33;;;10.07;;
908;SDS011;441;51.192;6.788;2023-04-01T13:26:34;9.90;;;9.60;;
908;SDS011;441;51.192;6.788;2023-04-01T13:29:07;10.77;;;10.43;;
908;SDS011;441;51.192;6.788;2023-04-01T13:31:44;10.50;;;10.10;;
908;SDS011;441;51.192;6.788;2023-04-01T13:34:24;11.03;;;10.77;;
908;SDS011;441;51.192;6.788;2023-04-01T13:37:11;11.27;;;10.97;;
908;SDS011;441;51.192;6.788;2023-04-01T13:39:52;11.30;;;10.90;;
908;SDS011;441;51.192;6.788;2023-04-01T13:42:39;11.07;;;10.80;;
908;SDS011;441;51.192;6.788;2023-04-01T13:45:12;10.40;;;10.20;;
908;SDS011;441;51.192;6.788;2023-04-01T13:51:18;10.30;;;10.10;;
908;SDS011;441;51.192;6.788;2023-04-01T13:54:07;11.00;;;10.70;;
908;SDS011;441;51.192;6.788;2023-04-01T13:56:57;10.30;;;10.10;;
908;SDS011;441;51.192;6.788;2023-04-01T13:59:39;11.07;;;10.77;;
908;SDS011;441;51.192;6.788;2023-04-01T14:02:25;10.97;;;10.77;;
908;SDS011;441;51.192;6.788;2023-04-01T14:05:08;10.93;;;10.73;;
908;SDS011;441;51.192;6.788;2023-04-01T14:07:47;10.97;;;10.67;;
908;SDS011;441;51.192;6.788;2023-04-01T14:10:28;11.30;;;10.90;;
908;SDS011;441;51.192;6.788;2023-04-01T14:13:05;10.20;;;10.00;;
908;SDS011;441;51.192;6.788;2023-04-01T14:15:41;10.80;;;10.60;;
908;SDS011;441;51.192;6.788;2023-04-01T14:18:24;9.70;;;9.50;;
908;SDS011;441;51.192;6.788;2023-04-01T14:21:10;10.40;;;10.20;;
908;SDS011;441;51.192;6.788;2023-04-01T14:23:59;10.40;;;10.20;;
908;SDS011;441;51.192;6.788;2023-04-01T14:29:39;10.73;;;10.50;;
908;SDS011;441;51.192;6.788;2023-04-01T14:32:19;10.20;;;10.00;;
908;SDS011;441;51.192;6.788;2023-04-01T14:34:58;11.40;;;11.10;;
908;SDS011;441;51.192;6.788;2023-04-01T14:37:55;10.47;;;10.27;;
908;SDS011;441;51.192;6.788;2023-04-01T14:40:48;9.70;;;9.50;;
908;SDS011;441;51.192;6.788;2023-04-01T14:49:38;10.10;;;9.90;;
908;SDS011;441;51.192;6.788;2023-04-01T14:52:10;10.33;;;10.13;;
908;SDS011;441;51.192;6.788;2023-04-01T14:54:41;10.33;;;10.10;;
908;SDS011;441;51.192;6.788;2023-04-01T14:57:12;9.73;;;9.40;;
908;SDS011;441;51.192;6.788;2023-04-01T14:59:47;10.33;;;10.03;;
908;SDS011;441;51.192;6.788;2023-04-01T15:05:25;10.10;;;9.90;;
908;SDS011;441;51.192;6.788;2023-04-01T15:08:05;10.33;;;10.10;;
908;SDS011;441;51.192;6.788;2023-04-01T15:10:43;10.40;;;10.10;;
908;SDS011;441;51.192;6.788;2023-04-01T15:16:41;9.70;;;9.50;;
908;SDS011;441;51.192;6.788;2023-04-01T15:19:22;9.80;;;9.60;;
908;SDS011;441;51.192;6.788;2023-04-01T15:25:16;10.27;;;10.07;;
908;SDS011;441;51.192;6.788;2023-04-01T15:27:54;10.77;;;10.47;;
908;SDS011;441;51.192;6.788;2023-04-01T15:30:28;9.30;;;9.10;;
908;SDS011;441;51.192;6.788;2023-04-01T15:33:09;9.90;;;9.70;;
908;SDS011;441;51.192;6.788;2023-04-01T15:35:57;10.47;;;10.27;;
908;SDS011;441;51.192;6.788;2023-04-01T15:38:33;11.13;;;10.50;;
908;SDS011;441;51.192;6.788;2023-04-01T15:41:07;11.30;;;10.90;;
908;SDS011;441;51.192;6.788;2023-04-01T15:43:41;11.50;;;11.10;;
908;SDS011;441;51.192;6.788;2023-04-01T15:49:19;11.30;;;10.60;;
908;SDS011;441;51.192;6.788;2023-04-01T15:51:54;12.57;;;11.77;;
908;SDS011;441;51.192;6.788;2023-04-01T15:54:38;13.30;;;12.60;;
908;SDS011;441;51.192;6.788;2023-04-01T15:57:33;12.83;;;11.90;;
908;SDS011;441;51.192;6.788;2023-04-01T16:00:19;13.47;;;12.57;;
908;SDS011;441;51.192;6.788;2023-04-01T16:03:09;13.67;;;13.00;;
908;SDS011;441;51.192;6.788;2023-04-01T16:05:49;12.53;;;12.03;;
908;SDS011;441;51.192;6.788;2023-04-01T16:08:41;11.60;;;10.77;;
908;SDS011;441;51.192;6.788;2023-04-01T16:11:23;11.10;;;10.60;;
908;SDS011;441;51.192;6.788;2023-04-01T16:13:59;10.97;;;10.57;;
908;SDS011;441;51.192;6.788;2023-04-01T16:16:50;12.53;;;11.33;;
908;SDS011;441;51.192;6.788;2023-04-01T16:19:30;12.20;;;11.53;;
908;SDS011;441;51.192;6.788;2023-04-01T16:22:08;12.00;;;11.27;;
908;SDS011;441;51.192;6.788;2023-04-01T16:24:43;11.67;;;11.17;;
908;SDS011;441;51.192;6.788;2023-04-01T16:27:14;14.67;;;13.97;;
908;SDS011;441;51.192;6.788;2023-04-01T16:29:46;10.73;;;10.43;;
908;SDS011;441;51.192;6.788;2023-04-01T16:32:18;11.50;;;11.00;;
908;SDS011;441;51.192;6.788;2023-04-01T16:34:56;12.80;;;11.77;;
908;SDS011;441;51.192;6.788;2023-04-01T16:37:34;11.10;;;10.50;;
908;SDS011;441;51.192;6.788;2023-04-01T16:40:10;11.87;;;11.27;;
908;SDS011;441;51.192;6.788;2023-04-01T16:42:43;10.20;;;9.80;;
908;SDS011;441;51.192;6.788;2023-04-01T16:45:18;12.10;;;11.47;;
908;SDS011;441;51.192;6.788;2023-04-01T16:47:52;11.47;;;10.60;;
908;SDS011;441;51.192;6.788;2023-04-01T16:50:23;10.77;;;10.27;;
908;SDS011;441;51.192;6.788;2023-04-01T16:53:02;11.10;;;10.43;;
908;SDS011;441;51.192;6.788;2023-04-01T16:55:42;11.80;;;10.70;;
908;SDS011;441;51.192;6.788;2023-04-01T16:58:14;11.60;;;11.13;;
908;SDS011;441;51.192;6.788;2023-04-01T17:00:49;11.30;;;10.80;;
908;SDS011;441;51.192;6.788;2023-04-01T17:03:20;10.80;;;10.37;;
908;SDS011;441;51.192;6.788;2023-04-01T17:05:56;11.60;;;10.90;;
908;SDS011;441;51.192;6.788;2023-04-01T17:08:40;11.30;;;10.80;;
908;SDS011;441;51.192;6.788;2023-04-01T17:11:19;10.57;;;10.03;;
908;SDS011;441;51.192;6.788;2023-04-01T17:13:52;11.57;;;11.17;;
908;SDS011;441;51.192;6.788;2023-04-01T17:16:37;10.80;;;10.17;;
908;SDS011;441;51.192;6.788;2023-04-01T17:19:28;11.33;;;10.83;;
908;SDS011;441;51.192;6.788;2023-04-01T17:22:07;11.47;;;10.70;;
908;SDS011;441;51.192;6.788;2023-04-01T17:24:51;11.70;;;11.20;;
908;SDS011;441;51.192;6.788;2023-04-01T17:27:27;11.13;;;10.80;;
908;SDS011;441;51.192;6.788;2023-04-01T17:30:02;10.77;;;10.37;;
908;SDS011;441;51.192;6.788;2023-04-01T17:32:44;10.67;;;10.03;;
908;SDS011;441;51.192;6.788;2023-04-01T17:35:22;10.90;;;10.60;;
908;SDS011;441;51.192;6.788;2023-04-01T17:37:58;11.03;;;10.63;;
908;SDS011;441;51.192;6.788;2023-04-01T17:40:44;10.30;;;10.00;;
908;SDS011;441;51.192;6.788;2023-04-01T17:43:25;12.03;;;11.43;;
908;SDS011;441;51.192;6.788;2023-04-01T17:46:01;11.63;;;11.30;;
908;SDS011;441;51.192;6.788;2023-04-01T17:48:37;14.40;;;13.03;;
908;SDS011;441;51.192;6.788;2023-04-01T17:51:15;11.43;;;10.93;;
908;SDS011;441;51.192;6.788;2023-04-01T17:53:48;10.73;;;10.40;;
908;SDS011;441;51.192;6.788;2023-04-01T17:56:32;10.83;;;10.50;;
908;SDS011;441;51.192;6.788;2023-04-01T17:59:13;9.25;;;8.95;;